createdAt,value
2022-08-26T04:41:55.273Z,21.02
2022-08-26T04:44:10.659Z,21.09
2022-08-26T04:46:26.033Z,21.219999
2022-08-26T04:48:40.346Z,21.389999
2022-08-26T04:50:54.735Z,21.58
2022-08-26T04:53:09.251Z,21.76
2022-08-26T04:55:25.407Z,21.92
2022-08-26T04:57:40.793Z,22.09
2022-08-26T04:59:55.155Z,22.24
2022-08-26T05:02:09.585Z,22.379999
2022-08-26T05:04:23.990Z,22.49
2022-08-26T05:06:38.308Z,22.59
2022-08-26T05:08:52.677Z,22.68
2022-08-26T05:11:08.066Z,22.76
2022-08-26T05:13:22.421Z,22.83
2022-08-26T05:15:36.846Z,22.889999
2022-08-26T05:17:51.205Z,22.93
2022-08-26T05:20:05.563Z,22.940001
2022-08-26T05:22:20.904Z,22.959999
2022-08-26T05:24:35.295Z,22.98
2022-08-26T05:26:50.650Z,23.01
2022-08-26T05:29:06.999Z,23.040001
2022-08-26T05:31:21.361Z,23.040001
2022-08-26T05:33:35.705Z,23.049999
2022-08-26T05:35:51.078Z,23.040001
2022-08-26T05:38:08.244Z,23.049999
2022-08-26T05:40:21.745Z,23.07
2022-08-26T05:42:36.127Z,23.110001
2022-08-26T05:44:53.680Z,23.129999
2022-08-26T05:47:05.859Z,23.16
2022-08-26T05:49:20.234Z,23.190001
2022-08-26T05:51:35.573Z,23.219999
2022-08-26T05:53:54.420Z,23.24
2022-08-26T05:56:04.339Z,23.26
2022-08-26T05:58:18.717Z,23.290001
2022-08-26T06:00:34.108Z,23.32
2022-08-26T06:02:51.138Z,23.34
2022-08-26T06:05:05.480Z,23.33
2022-08-26T06:07:19.849Z,23.309999
2022-08-26T06:09:34.227Z,23.299999
2022-08-26T06:11:48.582Z,23.309999
2022-08-26T06:14:03.693Z,23.280001
2022-08-26T06:16:17.360Z,23.26
2022-08-26T06:18:31.643Z,23.26
2022-08-26T06:20:53.763Z,23.25
2022-08-26T06:23:03.327Z,23.26
2022-08-26T06:25:17.714Z,23.27
2022-08-26T06:27:34.024Z,23.290001
2022-08-26T06:29:48.363Z,23.309999
2022-08-26T06:32:02.792Z,23.33
2022-08-26T06:34:18.113Z,23.360001
2022-08-26T06:36:34.493Z,23.389999
2022-08-26T06:38:49.790Z,23.42
2022-08-26T06:41:04.223Z,23.440001
2022-08-26T06:43:18.573Z,23.450001
2022-08-26T06:45:32.900Z,23.440001
2022-08-26T06:47:49.442Z,23.43
2022-08-26T06:50:03.673Z,23.43
2022-08-26T06:52:22.583Z,23.43
2022-08-26T06:54:33.411Z,23.41
2022-08-26T06:56:48.750Z,23.389999
2022-08-26T06:59:03.106Z,23.370001
2022-08-26T07:01:18.173Z,23.360001
2022-08-26T07:03:31.802Z,23.35
2022-08-26T07:05:48.165Z,23.34
2022-08-26T07:08:05.506Z,23.33
2022-08-26T07:10:20.811Z,23.33
2022-08-26T07:12:34.187Z,23.34
2022-08-26T07:14:49.555Z,23.360001
2022-08-26T07:17:04.926Z,23.370001
2022-08-26T07:19:29.808Z,23.379999
2022-08-26T07:21:39.580Z,23.389999
2022-08-26T07:23:58.768Z,23.42
2022-08-26T07:26:10.410Z,23.440001
2022-08-26T07:28:24.771Z,23.450001
2022-08-26T07:30:39.221Z,23.450001
2022-08-26T07:32:53.535Z,23.450001
2022-08-26T07:35:07.931Z,23.43
2022-08-26T07:37:22.329Z,23.4
2022-08-26T07:39:40.299Z,23.4
2022-08-26T07:41:54.089Z,23.389999
2022-08-26T07:44:08.465Z,23.379999
2022-08-26T07:46:26.997Z,23.389999
2022-08-26T07:48:39.079Z,23.41
2022-08-26T07:50:55.399Z,23.41
2022-08-26T07:53:11.360Z,23.4
2022-08-26T07:55:26.618Z,23.379999
2022-08-26T07:57:42.953Z,23.370001
2022-08-26T07:59:57.326Z,23.360001
2022-08-26T08:02:11.732Z,23.360001
2022-08-26T08:04:26.632Z,23.370001
2022-08-26T08:06:41.573Z,23.389999
2022-08-26T08:08:56.211Z,23.4
2022-08-26T08:11:13.052Z,23.41
2022-08-26T08:13:28.338Z,23.42
2022-08-26T08:15:42.768Z,23.440001
2022-08-26T08:18:00.856Z,23.440001
2022-08-26T08:20:15.406Z,23.450001
2022-08-26T08:22:30.815Z,23.440001
2022-08-26T08:24:45.194Z,23.43
2022-08-26T08:27:01.558Z,23.43
2022-08-26T08:29:17.591Z,23.450001
2022-08-26T08:31:56.415Z,23.459999
2022-08-26T08:33:49.306Z,23.48
2022-08-26T08:36:04.698Z,23.5
2022-08-26T08:38:21.046Z,23.5
2022-08-26T08:40:36.435Z,23.52
2022-08-26T08:45:07.129Z,23.52
2022-08-26T08:47:21.516Z,23.540001
2022-08-26T08:49:35.867Z,23.559999
2022-08-26T08:51:51.069Z,23.549999
2022-08-26T08:54:06.440Z,23.52
2022-08-26T08:56:20.860Z,23.49
2022-08-26T08:58:36.177Z,23.450001
2022-08-26T09:00:51.683Z,23.389999
2022-08-26T09:03:05.978Z,23.33
2022-08-26T09:05:20.343Z,23.27
2022-08-26T09:07:36.625Z,23.190001
2022-08-26T09:09:49.732Z,23.129999
2022-08-26T09:12:04.093Z,23.08
2022-08-26T09:14:19.422Z,23.040001
2022-08-26T09:16:35.079Z,23.01
2022-08-26T09:18:50.415Z,22.99
2022-08-26T09:21:04.765Z,23
2022-08-26T09:23:19.144Z,23.01
2022-08-26T09:25:34.494Z,23.01
2022-08-26T09:27:50.237Z,23.01
2022-08-26T09:30:05.274Z,23.030001
2022-08-26T09:32:20.579Z,23.059999
2022-08-26T09:34:34.935Z,23.110001
2022-08-26T09:36:50.303Z,23.17
2022-08-26T09:39:04.688Z,23.23
2022-08-26T09:41:19.054Z,23.290001
2022-08-26T09:43:33.383Z,23.33
2022-08-26T09:45:50.579Z,23.35
2022-08-26T09:48:06.103Z,23.379999
2022-08-26T09:50:23.425Z,23.4
2022-08-26T09:52:40.457Z,23.42
2022-08-26T09:54:53.141Z,23.440001
2022-08-26T09:57:08.539Z,23.459999
2022-08-26T09:59:22.895Z,23.48
2022-08-26T10:01:39.329Z,23.48
2022-08-26T10:03:54.639Z,23.469999
2022-08-26T10:06:09.976Z,23.440001
2022-08-26T10:08:24.337Z,23.41
2022-08-26T10:10:38.690Z,23.379999
2022-08-26T10:12:55.063Z,23.360001
2022-08-26T10:15:09.380Z,23.35
2022-08-26T10:17:24.722Z,23.35
2022-08-26T10:19:41.575Z,23.35
2022-08-26T10:21:57.315Z,23.34
2022-08-26T10:24:11.665Z,23.33
2022-08-26T10:26:27.035Z,23.33
2022-08-26T10:28:42.368Z,23.33
2022-08-26T10:30:57.755Z,23.33
2022-08-26T10:33:12.122Z,23.34
2022-08-26T10:35:27.476Z,23.370001
2022-08-26T10:37:41.915Z,23.41
2022-08-26T10:39:58.811Z,23.440001
2022-08-26T10:42:11.677Z,23.459999
2022-08-26T10:44:27.039Z,23.48
2022-08-26T10:46:41.397Z,23.52
2022-08-26T10:48:55.693Z,23.57
2022-08-26T10:51:11.019Z,23.610001
2022-08-26T10:53:26.398Z,23.639999
2022-08-26T10:55:41.699Z,23.639999
2022-08-26T10:57:56.047Z,23.639999
2022-08-26T11:00:13.449Z,23.620001
2022-08-26T11:02:27.713Z,23.58
2022-08-26T11:04:45.723Z,23.559999
2022-08-26T11:06:58.451Z,23.530001
2022-08-26T11:09:14.801Z,23.49
2022-08-26T11:11:32.149Z,23.459999
2022-08-26T11:13:46.494Z,23.440001
2022-08-26T11:16:01.071Z,23.41
2022-08-26T11:18:15.185Z,23.41
2022-08-26T11:20:31.538Z,23.41
2022-08-26T11:22:48.828Z,23.42
2022-08-26T11:25:03.171Z,23.42
2022-08-26T11:27:19.512Z,23.43
2022-08-26T11:29:33.851Z,23.43
2022-08-26T11:31:48.241Z,23.42
2022-08-26T11:34:03.546Z,23.4
2022-08-26T11:36:19.887Z,23.389999
2022-08-26T11:38:36.198Z,23.389999
2022-08-26T11:40:50.591Z,23.4
2022-08-26T11:43:04.940Z,23.440001
2022-08-26T11:45:19.357Z,23.450001
2022-08-26T11:47:33.671Z,23.440001
2022-08-26T11:49:48.050Z,23.42
2022-08-26T11:52:03.395Z,23.389999
2022-08-26T11:54:17.730Z,23.370001
2022-08-26T11:56:35.111Z,23.35
2022-08-26T11:58:49.476Z,23.35
2022-08-26T12:01:04.834Z,23.360001
2022-08-26T12:03:20.227Z,23.360001
2022-08-26T12:05:34.520Z,23.370001
2022-08-26T12:07:48.920Z,23.389999
2022-08-26T12:10:03.283Z,23.42
2022-08-26T12:12:17.688Z,23.450001
2022-08-26T12:14:32.995Z,23.469999
2022-08-26T12:16:48.444Z,23.49
2022-08-26T12:19:02.693Z,23.52
2022-08-26T12:21:19.022Z,23.559999
2022-08-26T12:23:34.362Z,23.59
2022-08-26T12:25:50.668Z,23.620001
2022-08-26T12:28:05.173Z,23.65
2022-08-26T12:30:22.398Z,23.68
2022-08-26T12:32:37.718Z,23.709999
2022-08-26T12:34:55.215Z,23.73
2022-08-26T12:37:09.457Z,23.75
2022-08-26T12:39:25.778Z,23.76
2022-08-26T12:41:40.164Z,23.77
2022-08-26T12:43:54.503Z,23.780001
2022-08-26T12:46:08.858Z,23.76
2022-08-26T12:48:24.522Z,23.73
2022-08-26T12:50:37.590Z,23.690001
2022-08-26T12:52:51.952Z,23.629999
2022-08-26T12:55:06.381Z,23.58
2022-08-26T12:57:20.742Z,23.530001
2022-08-26T12:59:35.141Z,23.469999
2022-08-26T13:01:49.609Z,23.43
2022-08-26T13:04:04.870Z,23.379999
2022-08-26T13:06:19.214Z,23.33
2022-08-26T13:08:33.563Z,23.280001
2022-08-26T13:10:47.940Z,23.24
2022-08-26T13:13:02.423Z,23.219999
2022-08-26T13:15:16.769Z,23.190001
2022-08-26T13:17:31.086Z,23.18
2022-08-26T13:19:46.441Z,23.17
2022-08-26T13:22:01.862Z,23.15
2022-08-26T13:24:16.247Z,23.129999
2022-08-26T13:26:30.586Z,23.110001
2022-08-26T13:28:44.936Z,23.1
2022-08-26T13:31:02.289Z,23.07
2022-08-26T13:33:16.602Z,23.040001
2022-08-26T13:35:30.993Z,23.02
2022-08-26T13:37:45.313Z,23
2022-08-26T13:39:59.725Z,22.98
2022-08-26T13:42:14.141Z,22.98
2022-08-26T13:44:28.567Z,22.959999
2022-08-26T13:46:42.916Z,22.93
2022-08-26T13:48:57.230Z,22.9
2022-08-26T13:51:11.583Z,22.879999
2022-08-26T13:53:26.000Z,22.85
2022-08-26T13:55:40.349Z,22.84
2022-08-26T13:57:54.752Z,22.83
2022-08-26T14:00:11.027Z,22.82
2022-08-26T14:02:23.558Z,22.799999
2022-08-26T14:04:37.922Z,22.780001
2022-08-26T14:06:52.305Z,22.780001
2022-08-26T14:09:06.700Z,22.780001
2022-08-26T14:11:21.074Z,22.77
2022-08-26T14:13:35.410Z,22.75
2022-08-26T14:15:49.958Z,22.75
2022-08-26T14:18:04.310Z,22.76
2022-08-26T14:20:19.613Z,22.76
2022-08-26T14:22:37.969Z,22.76
2022-08-26T14:24:52.300Z,22.780001
2022-08-26T14:27:06.641Z,22.780001
2022-08-26T14:29:20.979Z,22.76
2022-08-26T14:31:35.376Z,22.73
2022-08-26T14:33:49.764Z,22.719999
2022-08-26T14:36:04.136Z,22.709999
2022-08-26T14:38:18.485Z,22.700001
2022-08-26T14:40:33.877Z,22.700001
2022-08-26T14:42:49.658Z,22.709999
2022-08-26T14:45:04.122Z,22.709999
2022-08-26T14:47:18.431Z,22.68
2022-08-26T14:49:32.807Z,22.65
2022-08-26T14:51:47.129Z,22.620001
2022-08-26T14:54:01.503Z,22.59
2022-08-26T14:56:16.773Z,22.559999
2022-08-26T14:58:34.727Z,22.559999
2022-08-26T15:00:44.732Z,22.559999
2022-08-26T15:03:00.187Z,22.57
2022-08-26T15:05:14.468Z,22.610001
2022-08-26T15:07:28.841Z,22.65
2022-08-26T15:09:43.200Z,22.690001
2022-08-26T15:11:57.544Z,22.74
2022-08-26T15:14:14.747Z,22.76
2022-08-26T15:16:28.271Z,22.76
2022-08-26T15:18:42.698Z,22.75
2022-08-26T15:20:57.256Z,22.74
2022-08-26T15:23:11.908Z,22.75
2022-08-26T15:25:28.059Z,22.75
2022-08-26T15:27:42.430Z,22.73
2022-08-26T15:29:56.851Z,22.709999
2022-08-26T15:32:11.192Z,22.68
2022-08-26T15:34:25.586Z,22.639999
2022-08-26T15:36:39.948Z,22.6
2022-08-26T15:38:54.363Z,22.57
2022-08-26T15:41:08.729Z,22.540001
2022-08-26T15:43:28.893Z,22.49
2022-08-26T15:45:38.443Z,22.459999
2022-08-26T15:47:55.218Z,22.440001
2022-08-26T15:50:10.132Z,22.42
2022-08-26T15:52:24.561Z,22.4
2022-08-26T15:54:38.961Z,22.389999
2022-08-26T15:56:53.294Z,22.379999
2022-08-26T15:59:07.721Z,22.370001
2022-08-26T16:01:24.401Z,22.370001
2022-08-26T16:03:37.446Z,22.379999
2022-08-26T16:05:52.873Z,22.389999
2022-08-26T16:08:07.226Z,22.389999
2022-08-26T16:10:20.527Z,22.379999
2022-08-26T16:12:34.907Z,22.360001
2022-08-26T16:14:49.272Z,22.33
2022-08-26T16:17:04.591Z,22.309999
2022-08-26T16:19:18.992Z,22.280001
2022-08-26T16:21:33.317Z,22.27
2022-08-26T16:23:47.715Z,22.25
2022-08-26T16:26:02.112Z,22.24
2022-08-26T16:28:24.983Z,22.25
2022-08-26T16:30:34.781Z,22.26
2022-08-26T16:32:49.130Z,22.27
2022-08-26T16:35:03.525Z,22.280001
2022-08-26T16:37:18.867Z,22.299999
2022-08-26T16:39:33.280Z,22.32
2022-08-26T16:41:50.566Z,22.33
2022-08-26T16:44:04.934Z,22.34
2022-08-26T16:46:19.460Z,22.34
2022-08-26T16:48:33.840Z,22.32
2022-08-26T16:50:48.242Z,22.299999
2022-08-26T16:53:03.582Z,22.299999
2022-08-26T16:55:19.043Z,22.33
2022-08-26T16:57:33.565Z,22.389999
2022-08-26T16:59:48.116Z,22.440001
2022-08-26T17:02:02.578Z,22.5
2022-08-26T17:04:18.431Z,22.59
2022-08-26T17:06:32.798Z,22.68
2022-08-26T17:08:47.175Z,22.780001
2022-08-26T17:11:02.691Z,22.860001
2022-08-26T17:13:17.973Z,22.940001
2022-08-26T17:15:34.733Z,22.99
2022-08-26T17:17:49.094Z,23.01
2022-08-26T17:20:03.485Z,23.049999
2022-08-26T17:22:18.040Z,23.08
2022-08-26T17:24:32.542Z,23.08
2022-08-26T17:26:47.794Z,23.1
2022-08-26T17:29:04.385Z,23.129999
2022-08-26T17:31:18.928Z,23.16
2022-08-26T17:33:33.207Z,23.18
2022-08-26T17:35:47.637Z,23.190001
2022-08-26T17:38:02.097Z,23.200001
2022-08-26T17:40:16.462Z,23.23
2022-08-26T17:42:31.588Z,23.27
2022-08-26T17:44:45.165Z,23.290001
2022-08-26T17:46:59.557Z,23.33
2022-08-26T17:49:13.925Z,23.379999
2022-08-26T17:51:28.407Z,23.42
2022-08-26T17:53:42.789Z,23.43
2022-08-26T17:55:57.137Z,23.4
2022-08-26T17:58:11.605Z,23.370001
2022-08-26T18:00:26.323Z,23.360001
2022-08-26T18:02:40.725Z,23.33
2022-08-26T18:04:55.144Z,23.290001
2022-08-26T18:07:10.517Z,23.27
2022-08-26T18:09:24.902Z,23.26
2022-08-26T18:11:39.398Z,23.23
2022-08-26T18:13:53.757Z,23.18
2022-08-26T18:16:08.265Z,23.1
2022-08-26T18:18:22.814Z,23
2022-08-26T18:20:37.174Z,22.92
2022-08-26T18:22:51.567Z,22.84
2022-08-26T18:25:06.064Z,22.76
2022-08-26T18:27:21.030Z,22.66
2022-08-26T18:29:35.377Z,22.57
2022-08-26T18:31:52.830Z,22.5
2022-08-26T18:34:07.190Z,22.450001
2022-08-26T18:36:22.009Z,22.4
2022-08-26T18:38:36.160Z,22.35
2022-08-26T18:40:52.584Z,22.299999
2022-08-26T18:43:07.002Z,22.26
2022-08-26T18:45:21.960Z,22.23
2022-08-26T18:47:36.538Z,22.209999
2022-08-26T18:49:50.921Z,22.190001
2022-08-26T18:52:05.632Z,22.18
2022-08-26T18:56:34.964Z,22.18
2022-08-26T18:58:49.764Z,22.16
2022-08-26T19:01:04.334Z,22.129999
2022-08-26T19:03:19.241Z,22.1
2022-08-26T19:05:33.511Z,22.08
2022-08-26T19:07:48.099Z,22.08
2022-08-26T19:10:02.619Z,22.07
2022-08-26T19:12:17.055Z,22.049999
2022-08-26T19:14:33.663Z,22.02
2022-08-26T19:16:48.467Z,22.01
2022-08-26T19:19:03.054Z,22
2022-08-26T19:21:18.988Z,22
2022-08-26T19:23:33.932Z,21.99
2022-08-26T19:25:56.318Z,21.959999
